Time;durP1;ratioP1;P1;durP2;ratioP2;P2;SDS_P1;SDS_P2;PMS_P1;PMS_P2;Temp;Humidity;BMP_temperature;BMP_pressure;BME280_temperature;BME280_humidity;BME280_pressure;Samples;Min_cycle;Max_cycle;Signal;HPM_P1;HPM_P2
2022/02/23 00:01:03;;;;;;;114.85;39.18;;;;;;;7.21;100.00;100591.47;1691817;84;20984;-94
2022/02/23 00:03:29;;;;;;;109.32;40.48;;;;;;;7.19;100.00;100594.38;1691841;84;21007;-94
2022/02/23 00:05:55;;;;;;;114.60;42.05;;;;;;;7.17;100.00;100591.11;1691718;84;21055;-94
2022/02/23 00:08:21;;;;;;;107.07;38.83;;;;;;;7.19;100.00;100585.52;1691907;84;21161;-94
2022/02/23 00:10:47;;;;;;;106.03;38.48;;;;;;;7.18;100.00;100591.41;1691847;84;21154;-94
2022/02/23 00:13:13;;;;;;;100.60;37.05;;;;;;;7.17;100.00;100592.98;1691994;84;20991;-95
2022/02/23 00:15:39;;;;;;;108.45;37.50;;;;;;;7.14;100.00;100587.56;1691893;84;20912;-94
2022/02/23 00:18:14;;;;;;;102.50;37.03;;;;;;;7.12;100.00;100582.14;1692033;84;21615;-95
2022/02/23 00:20:41;;;;;;;100.82;36.17;;;;;;;7.13;100.00;100584.61;1691351;84;21134;-94
2022/02/23 00:23:07;;;;;;;107.55;36.83;;;;;;;7.11;100.00;100588.56;1666329;84;22008;-95
2022/02/23 00:25:34;;;;;;;102.67;36.98;;;;;;;7.10;100.00;100590.97;1691567;84;21046;-94
2022/02/23 00:28:00;;;;;;;96.00;36.30;;;;;;;7.05;100.00;100586.30;1692051;84;21019;-95
2022/02/23 00:30:26;;;;;;;97.50;34.43;;;;;;;7.03;100.00;100594.59;1691971;84;21586;-94
2022/02/23 00:32:53;;;;;;;94.62;33.90;;;;;;;7.00;100.00;100594.23;1691856;84;21067;-94
2022/02/23 00:35:19;;;;;;;95.55;33.60;;;;;;;6.96;100.00;100590.41;1691909;84;21095;-95
2022/02/23 00:37:45;;;;;;;100.25;34.10;;;;;;;6.92;100.00;100590.60;1691454;84;20984;-96
2022/02/23 00:40:12;;;;;;;94.70;32.80;;;;;;;6.88;100.00;100588.08;1666203;84;20995;-94
2022/02/23 00:42:38;;;;;;;96.55;34.05;;;;;;;6.85;100.00;100584.53;1691821;84;20999;-95
2022/02/23 00:45:05;;;;;;;93.67;33.70;;;;;;;6.82;100.00;100588.50;1691937;84;21015;-95
2022/02/23 00:47:31;;;;;;;92.70;32.85;;;;;;;6.80;100.00;100593.30;1687440;84;21148;-95
2022/02/23 00:49:57;;;;;;;86.42;30.57;;;;;;;6.76;100.00;100595.60;1691594;84;21031;-95
2022/02/23 00:52:23;;;;;;;89.75;31.15;;;;;;;6.73;100.00;100595.27;1665784;84;20888;-95
2022/02/23 00:54:50;;;;;;;83.58;30.37;;;;;;;6.70;100.00;100594.39;1691930;84;21019;-95
2022/02/23 00:57:16;;;;;;;78.90;28.10;;;;;;;6.71;100.00;100589.34;1691700;84;21059;-95
2022/02/23 00:59:44;;;;;;;79.55;29.42;;;;;;;6.71;100.00;100583.46;1691780;84;21059;-95
2022/02/23 01:02:10;;;;;;;75.40;28.65;;;;;;;6.72;100.00;100587.76;1691365;84;21047;-95
2022/02/23 01:04:36;;;;;;;84.07;29.27;;;;;;;6.72;100.00;100586.42;1691843;84;21117;-96
2022/02/23 01:07:03;;;;;;;71.33;25.48;;;;;;;6.70;100.00;100591.71;1691946;84;21525;-95
2022/02/23 01:09:29;;;;;;;79.25;28.75;;;;;;;6.65;100.00;100591.09;1691824;84;21047;-95
2022/02/23 01:11:55;;;;;;;78.15;27.93;;;;;;;6.65;100.00;100588.91;1691831;84;22388;-95
2022/02/23 01:14:22;;;;;;;73.67;27.65;;;;;;;6.65;100.00;100585.73;1691636;84;21086;-96
2022/02/23 01:16:48;;;;;;;74.25;26.30;;;;;;;6.64;100.00;100579.27;1691959;84;21307;-96
2022/02/23 01:19:14;;;;;;;72.03;26.75;;;;;;;6.64;100.00;100588.11;1689473;84;21086;-96
2022/02/23 01:21:40;;;;;;;73.52;26.85;;;;;;;6.59;100.00;100586.67;1691614;84;21050;-96
2022/02/23 01:24:06;;;;;;;77.78;27.70;;;;;;;6.56;100.00;100590.63;1691814;84;21084;-96
2022/02/23 01:26:32;;;;;;;79.85;28.70;;;;;;;6.55;100.00;100586.83;1691921;84;21535;-95
2022/02/23 01:28:58;;;;;;;77.55;26.62;;;;;;;6.53;100.00;100590.26;1692197;84;20960;-96
2022/02/23 01:31:24;;;;;;;71.65;26.17;;;;;;;6.49;100.00;100580.55;1692165;84;20959;-95
2022/02/23 01:33:50;;;;;;;69.35;25.17;;;;;;;6.45;100.00;100579.92;1692318;84;20996;-96
2022/02/23 01:36:16;;;;;;;64.22;25.25;;;;;;;6.36;100.00;100584.28;1691980;84;21111;-96
2022/02/23 01:38:42;;;;;;;67.22;25.72;;;;;;;6.30;100.00;100593.23;1687194;84;20992;-95
2022/02/23 01:41:08;;;;;;;70.15;26.17;;;;;;;6.22;100.00;100599.45;1660101;85;20908;-96
2022/02/23 01:43:35;;;;;;;68.80;25.55;;;;;;;6.13;100.00;100607.80;1679470;85;20889;-96
2022/02/23 01:46:01;;;;;;;67.50;26.48;;;;;;;6.07;100.00;100614.08;1679837;85;21107;-96
2022/02/23 01:48:27;;;;;;;76.53;26.95;;;;;;;6.03;100.00;100616.92;1679889;85;21308;-96
2022/02/23 01:50:53;;;;;;;75.08;26.20;;;;;;;5.99;100.00;100619.75;1679586;85;20920;-96
2022/02/23 01:53:19;;;;;;;71.55;25.43;;;;;;;5.95;100.00;100618.59;1679997;85;21056;-96
2022/02/23 01:55:45;;;;;;;70.22;25.80;;;;;;;5.91;100.00;100611.52;1683419;85;21420;-96
2022/02/23 01:58:12;;;;;;;76.37;27.40;;;;;;;5.82;100.00;100624.08;1680161;85;21083;-96
2022/02/23 02:00:38;;;;;;;69.20;25.82;;;;;;;5.73;100.00;100624.92;1679928;85;21086;-96
2022/02/23 02:03:04;;;;;;;79.15;28.15;;;;;;;5.67;100.00;100623.16;1660245;85;21051;-96
2022/02/23 02:05:30;;;;;;;73.05;26.65;;;;;;;5.65;100.00;100628.75;1680076;85;21469;-96
2022/02/23 02:07:56;;;;;;;80.75;26.85;;;;;;;5.65;100.00;100624.73;1680087;85;20885;-96
2022/02/23 02:10:22;;;;;;;77.20;28.17;;;;;;;5.64;100.00;100628.43;1680033;85;21677;-96
2022/02/23 02:12:48;;;;;;;66.75;25.48;;;;;;;5.63;100.00;100631.34;1680046;85;21151;-95
2022/02/23 02:15:14;;;;;;;71.20;26.05;;;;;;;5.59;100.00;100633.66;1660934;85;20882;-95
2022/02/23 02:17:41;;;;;;;73.83;25.68;;;;;;;5.60;100.00;100629.94;1680526;85;21020;-96
2022/02/23 02:20:10;;;;;;;73.67;27.00;;;;;;;5.62;100.00;100628.39;1680441;85;21016;-96
2022/02/23 02:22:37;;;;;;;69.47;25.05;;;;;;;5.62;100.00;100630.53;1627109;87;21040;-96
2022/02/23 02:25:04;;;;;;;67.97;26.07;;;;;;;5.62;100.00;100639.89;1627602;88;21130;-96
2022/02/23 02:27:30;;;;;;;70.52;25.23;;;;;;;5.59;100.00;100644.35;1627251;87;21064;-96
2022/02/23 02:29:57;;;;;;;66.57;25.12;;;;;;;5.54;100.00;100641.53;1627248;88;21158;-96
2022/02/23 02:32:24;;;;;;;71.45;25.48;;;;;;;5.50;100.00;100643.53;1605785;88;21056;-96
2022/02/23 02:34:50;;;;;;;74.70;26.02;;;;;;;5.46;100.00;100647.98;1626978;87;21080;-96
2022/02/23 02:37:17;;;;;;;63.25;23.65;;;;;;;5.41;100.00;100651.88;1627185;88;21197;-96
2022/02/23 02:39:43;;;;;;;65.90;24.60;;;;;;;5.37;100.00;100645.33;1605748;88;21095;-96
2022/02/23 02:42:10;;;;;;;63.95;23.00;;;;;;;5.32;100.00;100649.71;1627218;87;21052;-96
2022/02/23 02:44:37;;;;;;;66.20;23.07;;;;;;;5.26;100.00;100655.95;1627900;88;21072;-96
2022/02/23 02:47:04;;;;;;;67.08;23.20;;;;;;;5.15;100.00;100646.31;1627900;87;21557;-96
2022/02/23 02:49:33;;;;;;;65.80;23.90;;;;;;;5.05;100.00;100654.53;1628026;88;21150;-96
2022/02/23 02:51:59;;;;;;;61.53;22.25;;;;;;;4.95;100.00;100656.39;1628055;87;21036;-96
2022/02/23 02:54:26;;;;;;;60.40;22.30;;;;;;;4.85;100.00;100655.55;1627895;88;21056;-96
2022/02/23 02:56:52;;;;;;;59.58;22.07;;;;;;;4.78;100.00;100656.95;1627827;87;21159;-96
2022/02/23 02:59:18;;;;;;;52.35;21.17;;;;;;;4.67;100.00;100648.84;1627985;88;21092;-96
2022/02/23 03:01:44;;;;;;;63.63;23.50;;;;;;;4.54;100.00;100657.80;1627799;87;21089;-96
2022/02/23 03:04:11;;;;;;;54.33;21.45;;;;;;;4.46;100.00;100665.55;1628567;88;21056;-96
2022/02/23 03:06:37;;;;;;;58.17;21.73;;;;;;;4.37;100.00;100664.70;1628830;88;20985;-96
2022/02/23 03:09:06;;;;;;;61.92;22.07;;;;;;;4.28;100.00;100667.63;1606922;88;21061;-96
2022/02/23 03:11:34;;;;;;;58.58;21.07;;;;;;;4.23;100.00;100666.64;1628536;88;21124;-96
2022/02/23 03:14:01;;;;;;;60.98;22.77;;;;;;;4.18;100.00;100665.16;1628135;87;21553;-96
2022/02/23 03:16:27;;;;;;;58.95;21.15;;;;;;;4.09;100.00;100671.27;1628092;88;21148;-96
2022/02/23 03:18:54;;;;;;;56.75;22.45;;;;;;;3.99;100.00;100675.72;1642569;85;21009;-96
2022/02/23 03:21:20;;;;;;;59.80;22.02;;;;;;;3.91;100.00;100677.81;1680502;85;21009;-96
2022/02/23 03:23:46;;;;;;;57.27;21.30;;;;;;;3.84;100.00;100678.67;1680595;85;20967;-96
2022/02/23 03:26:14;;;;;;;58.58;20.68;;;;;;;3.75;100.00;100672.48;1680334;85;21244;-96
2022/02/23 03:28:41;;;;;;;68.57;23.38;;;;;;;3.68;100.00;100681.84;1680081;85;21025;-96
2022/02/23 03:31:10;;;;;;;59.55;22.85;;;;;;;3.60;100.00;100678.89;1680163;85;21071;-96
2022/02/23 03:33:45;;;;;;;60.25;21.60;;;;;;;3.55;100.00;100684.03;1679969;85;21080;-96
2022/02/23 03:36:14;;;;;;;63.45;22.80;;;;;;;3.49;100.00;100686.73;1678905;85;21055;-95
2022/02/23 03:38:41;;;;;;;59.25;22.05;;;;;;;3.37;100.00;100685.23;1658033;85;21103;-96
2022/02/23 03:41:07;;;;;;;55.40;20.60;;;;;;;3.27;100.00;100690.19;1653579;85;21012;-96
2022/02/23 03:43:34;;;;;;;56.70;21.27;;;;;;;3.15;100.00;100689.50;1654303;86;21097;-95
2022/02/23 03:46:00;;;;;;;57.73;21.50;;;;;;;3.08;100.00;100694.52;1654206;85;21085;-95
2022/02/23 03:48:26;;;;;;;55.43;22.75;;;;;;;3.00;100.00;100696.91;1654245;86;21019;-95
2022/02/23 03:50:53;;;;;;;64.82;23.75;;;;;;;2.93;100.00;100694.23;1653957;86;21216;-96
2022/02/23 03:53:19;;;;;;;59.50;22.10;;;;;;;2.89;100.00;100694.87;1631198;86;21070;-96
2022/02/23 03:55:46;;;;;;;56.08;22.35;;;;;;;2.84;100.00;100699.98;1652551;86;21121;-95
2022/02/23 03:58:12;;;;;;;55.12;20.62;;;;;;;2.75;100.00;100703.37;1653042;86;21185;-95
2022/02/23 04:00:38;;;;;;;66.17;23.70;;;;;;;2.66;100.00;100711.25;1652860;86;21065;-94
2022/02/23 04:03:05;;;;;;;59.40;23.15;;;;;;;2.61;100.00;100715.03;1652988;86;21086;-94
2022/02/23 04:05:31;;;;;;;59.23;23.20;;;;;;;2.54;100.00;100715.03;1652400;86;21074;-95
2022/02/23 04:07:58;;;;;;;60.52;22.32;;;;;;;2.51;100.00;100714.11;1652802;86;21101;-95
2022/02/23 04:10:24;;;;;;;57.75;21.68;;;;;;;2.48;100.00;100714.52;1608805;86;21100;-95
2022/02/23 04:12:50;;;;;;;57.38;21.25;;;;;;;2.42;100.00;100714.82;1652753;86;21011;-95
2022/02/23 04:15:17;;;;;;;57.10;21.55;;;;;;;2.33;100.00;100720.55;1652698;86;21115;-94
2022/02/23 04:17:43;;;;;;;53.40;21.10;;;;;;;2.28;100.00;100726.45;1652686;86;21058;-95
2022/02/23 04:20:10;;;;;;;56.48;20.70;;;;;;;2.19;100.00;100728.48;1652730;86;21058;-95
2022/02/23 04:22:38;;;;;;;60.12;22.35;;;;;;;2.11;100.00;100729.17;1652808;86;21030;-96
2022/02/23 04:25:05;;;;;;;56.95;22.37;;;;;;;2.04;100.00;100733.96;1652344;85;21066;-95
2022/02/23 04:27:31;;;;;;;58.63;22.37;;;;;;;1.98;100.00;100737.42;1652932;86;21338;-96
2022/02/23 04:29:57;;;;;;;65.12;22.82;;;;;;;1.91;100.00;100743.23;1652522;85;21125;-94
2022/02/23 04:32:23;;;;;;;63.17;22.90;;;;;;;1.88;100.00;100740.95;1652935;85;20912;-94
2022/02/23 04:34:53;;;;;;;55.40;21.30;;;;;;;1.87;100.00;100749.14;1656401;85;20925;-94
2022/02/23 04:37:17;;;;;;;58.80;22.02;;;;;;;1.85;100.00;100753.30;1666683;84;21061;-95
2022/02/23 04:39:43;;;;;;;58.23;21.97;;;;;;;1.85;100.00;100761.79;1674217;84;21174;-95
2022/02/23 04:42:10;;;;;;;55.33;20.85;;;;;;;1.86;100.00;100772.23;1679415;85;21121;-94
2022/02/23 04:44:36;;;;;;;61.58;21.68;;;;;;;1.85;100.00;100765.27;1679533;85;21047;-93
2022/02/23 04:47:04;;;;;;;61.80;22.13;;;;;;;1.85;100.00;100767.11;1679178;85;21053;-94
2022/02/23 04:49:30;;;;;;;49.48;19.65;;;;;;;1.85;100.00;100769.77;1679375;85;21016;-94
2022/02/23 04:51:56;;;;;;;56.00;21.80;;;;;;;1.82;100.00;100780.27;1679418;85;21030;-93
2022/02/23 04:54:22;;;;;;;56.75;21.20;;;;;;;1.79;100.00;100784.65;1659905;85;21079;-94
2022/02/23 04:56:48;;;;;;;58.15;21.70;;;;;;;1.77;100.00;100782.72;1660171;85;20905;-94
2022/02/23 04:59:14;;;;;;;56.15;21.82;;;;;;;1.78;100.00;100785.68;1679478;85;21064;-94
2022/02/23 05:01:40;;;;;;;60.92;22.77;;;;;;;1.78;100.00;100786.49;1659811;85;21055;-93
2022/02/23 05:04:06;;;;;;;61.50;23.50;;;;;;;1.78;100.00;100790.48;1679321;85;21117;-93
2022/02/23 05:06:32;;;;;;;72.15;27.67;;;;;;;1.80;100.00;100796.42;1679055;85;21535;-95
2022/02/23 05:08:58;;;;;;;67.15;25.92;;;;;;;1.83;100.00;100796.55;1679401;85;21007;-95
2022/02/23 05:11:24;;;;;;;61.75;21.50;;;;;;;1.85;100.00;100795.81;1678804;85;21103;-95
2022/02/23 05:13:52;;;;;;;54.58;20.72;;;;;;;1.90;100.00;100800.04;1679396;85;20889;-94
2022/02/23 05:16:18;;;;;;;46.35;17.60;;;;;;;1.96;100.00;100796.59;1679116;85;21612;-95
2022/02/23 05:18:44;;;;;;;48.33;17.48;;;;;;;2.22;100.00;100796.39;1679062;85;21032;-95
2022/02/23 05:21:10;;;;;;;38.58;16.02;;;;;;;2.94;100.00;100800.19;1679248;85;21417;-95
2022/02/23 05:23:36;;;;;;;37.93;15.05;;;;;;;4.07;100.00;100806.13;1679232;85;20862;-95
2022/02/23 05:26:02;;;;;;;33.53;13.70;;;;;;;5.23;100.00;100804.14;1679103;85;20916;-96
2022/02/23 05:28:29;;;;;;;32.78;13.62;;;;;;;6.40;100.00;100799.28;1679145;85;21157;-95
2022/02/23 05:30:58;;;;;;;28.02;12.23;;;;;;;7.55;100.00;100809.59;1678615;85;21079;-93
2022/02/23 05:33:24;;;;;;;28.15;12.53;;;;;;;8.63;100.00;100816.63;1678832;85;21012;-92
2022/02/23 05:35:50;;;;;;;28.20;12.47;;;;;;;9.74;100.00;100819.46;1678691;85;21171;-93
2022/02/23 05:38:16;;;;;;;29.60;12.53;;;;;;;10.51;100.00;100825.80;1678918;85;21431;-94
2022/02/23 05:40:42;;;;;;;26.75;12.05;;;;;;;11.06;100.00;100831.45;1687875;84;21701;-94
2022/02/23 05:43:25;;;;;;;29.42;11.88;;;;;;;11.87;100.00;100831.73;1694505;83;21066;-93
2022/02/23 05:45:51;;;;;;;20.12;10.23;;;;;;;12.54;100.00;100834.69;1697118;83;21046;-94
2022/02/23 05:48:17;;;;;;;19.73;10.20;;;;;;;13.10;100.00;100840.98;1690888;83;21164;-94
2022/02/23 05:50:44;;;;;;;23.12;10.82;;;;;;;13.59;100.00;100849.11;1668420;84;20900;-94
2022/02/23 05:53:11;;;;;;;23.47;10.30;;;;;;;14.11;100.00;100851.92;1687713;84;22699;-94
2022/02/23 05:55:37;;;;;;;22.10;10.25;;;;;;;14.58;100.00;100841.70;1692765;84;20911;-93
2022/02/23 05:58:03;;;;;;;21.68;9.65;;;;;;;15.01;100.00;100850.91;1672418;84;21039;-94
2022/02/23 06:00:29;;;;;;;20.32;9.95;;;;;;;15.59;100.00;100855.59;1665024;85;21039;-94
2022/02/23 06:02:56;;;;;;;18.92;9.95;;;;;;;16.45;100.00;100852.98;1693620;84;21564;-93
2022/02/23 06:05:22;;;;;;;18.07;9.55;;;;;;;17.29;100.00;100868.61;1663034;85;21097;-93
2022/02/23 06:07:48;;;;;;;20.77;10.10;;;;;;;18.40;100.00;100867.63;1690575;84;21044;-93
2022/02/23 06:10:14;;;;;;;19.70;9.45;;;;;;;19.25;90.76;100870.63;1666615;84;21661;-93
2022/02/23 06:12:40;;;;;;;16.07;9.83;;;;;;;19.98;86.28;100875.30;1671774;85;20872;-94
2022/02/23 06:15:07;;;;;;;15.50;8.35;;;;;;;20.93;73.81;100882.11;1690771;84;21042;-94
2022/02/23 06:20:38;;;;;;;17.85;9.20;;;;;;;22.25;61.85;100893.83;1579415;89;21037;-94
2022/02/23 06:23:04;;;;;;;16.02;8.53;;;;;;;22.75;55.95;100893.83;1590172;88;21107;-93
2022/02/23 06:25:30;;;;;;;17.57;8.60;;;;;;;22.97;53.59;100902.89;1556498;90;21154;-94
2022/02/23 06:27:56;;;;;;;17.95;9.15;;;;;;;23.27;50.63;100897.54;1556695;89;21165;-94
2022/02/23 06:30:23;;;;;;;15.68;8.55;;;;;;;23.54;49.17;100903.01;1526466;93;21197;-95
2022/02/23 06:32:49;;;;;;;13.08;8.10;;;;;;;24.08;47.05;100896.56;1586841;89;21015;-94
2022/02/23 06:35:16;;;;;;;14.58;8.00;;;;;;;24.27;46.08;100896.00;1551502;91;21118;-94
2022/02/23 06:37:42;;;;;;;16.07;8.45;;;;;;;24.79;45.26;100900.75;1586756;89;21131;-89
2022/02/23 06:40:10;;;;;;;14.53;8.20;;;;;;;25.29;43.22;100893.92;1586295;89;21203;-95
2022/02/23 06:42:39;;;;;;;13.30;8.03;;;;;;;25.68;40.83;100897.50;1580170;89;21125;-94
2022/02/23 06:45:07;;;;;;;15.23;7.30;;;;;;;26.09;40.55;100905.06;1580266;89;21108;-95
2022/02/23 06:47:33;;;;;;;12.63;7.47;;;;;;;26.16;38.62;100908.02;1580220;90;21144;-95
2022/02/23 06:49:59;;;;;;;13.95;7.50;;;;;;;26.49;38.88;100908.42;1580361;89;21522;-94
2022/02/23 06:52:31;;;;;;;11.83;7.17;;;;;;;26.54;36.91;100910.11;1580064;90;21773;-95
2022/02/23 06:54:58;;;;;;;12.75;7.65;;;;;;;26.67;36.75;100909.40;1580128;90;22010;-93
2022/02/23 06:57:24;;;;;;;11.73;6.75;;;;;;;27.08;36.76;100914.81;1580094;89;21100;-94
2022/02/23 06:59:52;;;;;;;13.18;7.50;;;;;;;27.33;34.89;100925.03;1580369;90;21061;-93
2022/02/23 07:02:18;;;;;;;12.75;7.83;;;;;;;27.56;34.90;100930.61;1579900;90;21046;-93
2022/02/23 07:04:44;;;;;;;10.78;7.12;;;;;;;28.01;35.09;100929.05;1584317;88;21111;-93
2022/02/23 07:07:11;;;;;;;10.93;6.95;;;;;;;28.59;33.57;100927.98;1586921;88;21912;-93
2022/02/23 07:09:37;;;;;;;10.50;7.28;;;;;;;28.90;33.20;100932.35;1586618;88;21264;-92
2022/02/23 07:12:07;;;;;;;12.37;7.00;;;;;;;29.46;32.22;100932.64;1577441;88;21889;-93
2022/02/23 07:14:34;;;;;;;11.35;7.08;;;;;;;29.77;30.98;100933.58;1552425;90;21061;-93
2022/02/23 07:17:00;;;;;;;11.30;6.50;;;;;;;29.15;30.27;100934.66;1555180;90;20993;-93
2022/02/23 07:19:26;;;;;;;9.60;6.47;;;;;;;28.81;29.81;100937.98;1554930;90;21215;-93
2022/02/23 07:21:52;;;;;;;9.65;6.45;;;;;;;28.81;29.81;100937.98;1548199;90;21600;-94
2022/02/23 07:24:31;;;;;;;9.88;6.62;;;;;;;28.57;29.28;100937.85;1601726;88;21094;-94
2022/02/23 07:26:58;;;;;;;9.90;6.53;;;;;;;28.98;29.52;100948.52;1620341;88;21480;-94
2022/02/23 07:29:24;;;;;;;10.32;6.40;;;;;;;28.98;29.52;100948.52;1622723;88;21074;-96
2022/02/23 07:31:51;;;;;;;9.10;6.35;;;;;;;29.35;28.43;100947.78;1622618;88;21072;-91
2022/02/23 07:34:18;;;;;;;8.65;5.90;;;;;;;28.90;28.39;100949.00;1622951;88;21078;-95
2022/02/23 07:36:45;;;;;;;13.20;6.62;;;;;;;28.40;28.52;100954.41;1622116;88;21440;-95
2022/02/23 07:39:12;;;;;;;11.60;6.05;;;;;;;28.15;27.60;100949.83;1622461;88;21116;-93
2022/02/23 07:41:38;;;;;;;9.85;5.50;;;;;;;26.42;28.86;100957.98;1649614;86;21090;-95
2022/02/23 07:44:04;;;;;;;11.65;5.37;;;;;;;24.89;29.88;100963.70;1610039;88;21238;-96
2022/02/23 07:46:30;;;;;;;9.20;4.60;;;;;;;23.66;30.63;100968.85;1625501;88;21641;-94
2022/02/23 07:49:01;;;;;;;8.70;4.53;;;;;;;22.75;29.96;100968.59;1637541;86;21065;-95
2022/02/23 07:51:28;;;;;;;8.05;4.55;;;;;;;21.51;31.05;100974.02;1636050;87;21113;-91
2022/02/23 07:53:55;;;;;;;9.88;4.70;;;;;;;20.61;31.73;100971.81;1639270;87;21499;-95
2022/02/23 07:56:22;;;;;;;10.32;4.47;;;;;;;20.37;33.00;100974.92;1646595;84;21147;-94
2022/02/23 07:58:50;;;;;;;11.80;5.17;;;;;;;21.09;32.45;100975.85;1678628;84;21051;-92
2022/02/23 08:01:35;;;;;;;10.03;4.70;;;;;;;20.96;32.13;100982.84;1688059;84;21042;-90
2022/02/23 08:04:03;;;;;;;7.08;4.58;;;;;;;20.82;32.09;100975.58;1681206;84;21015;-91
2022/02/23 08:06:29;;;;;;;9.53;4.47;;;;;;;20.47;33.20;100979.30;1690959;84;21625;-90
2022/02/23 08:08:56;;;;;;;7.42;4.03;;;;;;;21.59;33.69;100977.33;1688238;84;21640;-91
2022/02/23 08:11:24;;;;;;;6.95;4.05;;;;;;;23.25;33.59;100978.77;1687863;84;21071;-92
2022/02/23 08:14:02;;;;;;;9.35;4.08;;;;;;;25.06;32.05;100965.94;1688439;84;21110;-94
2022/02/23 08:19:34;;;;;;;6.90;3.85;;;;;;;26.04;29.63;100968.30;1626154;86;21586;-93
2022/02/23 08:22:05;;;;;;;6.83;4.08;;;;;;;26.91;28.78;100967.80;1617806;86;21384;-92
2022/02/23 08:24:34;;;;;;;6.33;3.62;;;;;;;27.37;27.13;100974.33;1643245;84;21033;-93
2022/02/23 08:27:02;;;;;;;7.85;4.10;;;;;;;27.39;26.18;100970.62;1647093;86;21565;-92
2022/02/23 08:29:28;;;;;;;4.97;3.90;;;;;;;27.50;26.50;100972.23;1652664;84;21081;-92
2022/02/23 08:31:57;;;;;;;4.95;3.67;;;;;;;27.62;25.69;100969.30;1652989;84;21088;-94
2022/02/23 08:34:26;;;;;;;5.65;3.85;;;;;;;27.35;23.35;100969.73;1656882;85;21608;-96
2022/02/23 08:36:52;;;;;;;8.05;4.45;;;;;;;26.48;24.66;100966.23;1656828;84;21121;-93
2022/02/23 08:39:18;;;;;;;6.70;3.90;;;;;;;26.40;23.81;100970.56;1652655;84;21687;-93
2022/02/23 08:41:47;;;;;;;6.40;4.22;;;;;;;25.64;25.05;100974.71;1639445;85;20938;-94
2022/02/23 08:44:13;;;;;;;6.25;3.98;;;;;;;25.30;24.48;100972.80;1633360;86;21101;-93
2022/02/23 08:46:43;;;;;;;8.73;4.65;;;;;;;25.23;25.92;100971.20;1638449;86;21530;-94
2022/02/23 08:49:11;;;;;;;7.42;4.37;;;;;;;25.13;24.50;100975.81;1641631;86;21630;-92
2022/02/23 08:51:42;;;;;;;7.12;3.70;;;;;;;24.99;25.89;100969.88;1646251;86;21097;-92
2022/02/23 08:54:08;;;;;;;6.17;3.98;;;;;;;25.53;25.99;100963.95;1629838;86;21121;-93
2022/02/23 08:56:34;;;;;;;7.75;3.67;;;;;;;26.17;25.35;100966.25;1625025;86;21119;-91
2022/02/23 08:59:00;;;;;;;6.35;3.72;;;;;;;26.15;25.19;100968.00;1630833;86;21893;-92
2022/02/23 09:01:29;;;;;;;7.40;3.20;;;;;;;26.18;24.65;100974.19;1603160;88;20923;-94
2022/02/23 09:03:54;;;;;;;5.97;2.95;;;;;;;25.13;24.56;100978.58;1624469;86;21089;-93
2022/02/23 09:06:22;;;;;;;4.83;2.98;;;;;;;23.15;25.47;100980.53;1624055;88;21512;-93
2022/02/23 09:08:50;;;;;;;5.67;2.72;;;;;;;21.54;26.75;100977.48;1616704;88;22422;-94
2022/02/23 09:11:16;;;;;;;4.87;2.70;;;;;;;20.08;27.81;100979.55;1621582;88;21120;-90
2022/02/23 09:13:42;;;;;;;7.03;3.20;;;;;;;18.76;29.08;100985.64;1627022;87;21055;-92
2022/02/23 09:16:12;;;;;;;6.00;2.75;;;;;;;17.79;29.74;100978.70;1664471;86;21144;-91
2022/02/23 09:18:38;;;;;;;5.35;2.67;;;;;;;16.55;29.80;100980.16;1619828;88;21029;-92
2022/02/23 09:21:05;;;;;;;5.70;3.15;;;;;;;15.03;31.97;100976.31;1619725;88;21572;-90
2022/02/23 09:23:32;;;;;;;6.47;3.05;;;;;;;14.05;33.37;100981.75;1598372;88;21689;-91
2022/02/23 09:25:58;;;;;;;8.30;3.35;;;;;;;13.49;34.49;100976.36;1596596;89;21042;-91
2022/02/23 09:28:24;;;;;;;4.58;2.30;;;;;;;13.05;35.46;100976.80;1598063;89;21054;-90
2022/02/23 09:30:50;;;;;;;7.97;2.50;;;;;;;12.67;35.77;100973.42;1598062;89;21073;-91
2022/02/23 09:33:17;;;;;;;6.35;2.30;;;;;;;12.32;37.34;100983.52;1636297;87;21101;-89
2022/02/23 09:35:45;;;;;;;5.87;2.55;;;;;;;12.09;38.31;100977.45;1636127;87;21122;-90
2022/02/23 09:38:12;;;;;;;5.85;2.22;;;;;;;11.83;38.23;100972.37;1636188;87;21260;-88
2022/02/23 09:40:41;;;;;;;4.95;2.17;;;;;;;11.60;39.74;100972.19;1634965;87;21049;-89
2022/02/23 09:43:09;;;;;;;3.47;2.20;;;;;;;11.31;39.24;100977.05;1632088;87;21054;-89
2022/02/23 09:45:37;;;;;;;4.80;1.95;;;;;;;11.08;39.75;100978.16;1631954;86;21053;-88
2022/02/23 09:48:04;;;;;;;5.92;2.22;;;;;;;10.82;40.52;100985.14;1615057;88;21093;-88
2022/02/23 09:50:31;;;;;;;3.77;1.90;;;;;;;10.75;40.66;100992.08;1615223;87;21108;-89
2022/02/23 09:52:57;;;;;;;5.20;2.25;;;;;;;10.69;42.25;100983.66;1611486;88;21131;-88
2022/02/23 09:55:24;;;;;;;7.50;2.20;;;;;;;10.71;42.25;100981.53;1615310;88;20950;-88
2022/02/23 09:57:53;;;;;;;6.80;1.87;;;;;;;10.65;42.98;100989.28;1615187;88;21144;-90
2022/02/23 10:00:24;;;;;;;5.72;2.10;;;;;;;10.66;43.18;100989.01;1565237;90;21092;-91
2022/02/23 10:02:53;;;;;;;2.95;1.80;;;;;;;10.54;42.95;100980.23;1565060;89;21101;-89
2022/02/23 10:05:19;;;;;;;3.52;1.80;;;;;;;10.44;42.49;100982.27;1565032;90;21111;-89
2022/02/23 10:07:45;;;;;;;3.98;2.10;;;;;;;10.38;42.71;100981.08;1565308;90;21057;-90
2022/02/23 10:10:34;;;;;;;5.95;2.60;;;;;;;10.37;43.42;100981.63;1565584;90;21049;-89
2022/02/23 10:15:33;;;;;;;4.25;2.10;;;;;;;10.20;44.03;100982.16;1497962;94;21135;-90
2022/02/23 10:18:10;;;;;;;5.17;2.22;;;;;;;10.23;43.53;100983.00;1460990;98;20962;-90
2022/02/23 10:20:42;;;;;;;5.10;2.65;;;;;;;10.11;43.47;100986.33;1421646;99;21369;-89
2022/02/23 10:23:19;;;;;;;6.42;2.10;;;;;;;10.10;44.11;100976.09;1433299;98;21193;-88
2022/02/23 10:28:35;;;;;;;4.78;2.15;;;;;;;10.17;44.09;100977.27;1413449;101;21213;-93
2022/02/23 10:31:09;;;;;;;7.60;2.60;;;;;;;10.15;44.18;100978.88;1414859;101;21111;-89
2022/02/23 10:33:41;;;;;;;5.87;2.25;;;;;;;10.04;43.96;100982.47;1414820;101;21147;-89
2022/02/23 10:36:18;;;;;;;5.60;2.25;;;;;;;9.96;44.01;100987.73;1376460;103;22279;-89
2022/02/23 10:38:51;;;;;;;5.17;2.70;;;;;;;9.91;44.28;100983.64;1376738;103;21741;-89
2022/02/23 10:41:35;;;;;;;4.97;2.65;;;;;;;9.86;44.26;100981.39;1375096;103;21180;-88
2022/02/23 10:44:04;;;;;;;7.78;2.12;;;;;;;9.82;44.81;100992.34;1373423;102;21315;-86
2022/02/23 10:46:30;;;;;;;8.23;3.08;;;;;;;9.82;45.43;100984.27;1377810;104;21137;-87
2022/02/23 10:49:01;;;;;;;5.25;2.40;;;;;;;9.83;45.21;100976.50;1377646;104;21135;-87
2022/02/23 10:51:37;;;;;;;5.80;2.70;;;;;;;9.81;45.03;100974.04;1377715;104;21574;-87
2022/02/23 10:54:09;;;;;;;2.37;1.75;;;;;;;9.82;45.44;100974.31;1377478;104;21499;-87
2022/02/23 10:56:40;;;;;;;3.20;2.00;;;;;;;9.83;45.87;100973.81;1372810;104;21535;-87
2022/02/23 10:59:17;;;;;;;6.72;2.60;;;;;;;9.87;45.68;100984.36;1372288;104;21225;-87
2022/02/23 11:01:48;;;;;;;5.40;2.45;;;;;;;9.88;45.73;100985.47;1369654;104;21078;-87
2022/02/23 11:04:15;;;;;;;5.22;2.15;;;;;;;9.84;45.43;100982.16;1351428;106;21156;-87
2022/02/23 11:06:42;;;;;;;3.33;1.92;;;;;;;9.83;45.42;100981.34;1351998;106;21197;-88
2022/02/23 11:09:10;;;;;;;7.92;2.35;;;;;;;9.81;45.82;100978.08;1352057;105;21178;-87
2022/02/23 11:11:37;;;;;;;6.10;2.40;;;;;;;9.84;45.76;100976.78;1353577;105;21072;-87
2022/02/23 11:14:09;;;;;;;6.10;2.08;;;;;;;9.86;45.63;100978.16;1364469;105;21186;-87
2022/02/23 11:16:37;;;;;;;5.30;2.42;;;;;;;9.90;46.06;100978.48;1365131;104;21259;-88
2022/02/23 11:19:06;;;;;;;3.65;1.98;;;;;;;9.94;45.46;100973.72;1364342;104;21232;-87
2022/02/23 11:21:37;;;;;;;5.25;2.22;;;;;;;9.97;46.08;100980.46;1351111;104;21998;-87
2022/02/23 11:24:07;;;;;;;5.30;2.40;;;;;;;9.96;45.79;100979.66;1329584;106;21196;-87
2022/02/23 11:26:35;;;;;;;7.97;2.27;;;;;;;9.96;45.39;100976.16;1391362;102;21038;-87